sensor_id;sensor_type;location;lat;lon;timestamp;temperature;humidity
31991;DHT22;18508;49.386;8.370;2023-05-10T00:01:43;13.60;99.90
31991;DHT22;18508;49.386;8.370;2023-05-10T00:04:11;13.50;99.90
31991;DHT22;18508;49.386;8.370;2023-05-10T00:06:40;13.50;99.90
31991;DHT22;18508;49.386;8.370;2023-05-10T00:09:08;13.50;99.90
31991;DHT22;18508;49.386;8.370;2023-05-10T00:11:36;13.60;99.90
31991;DHT22;18508;49.386;8.370;2023-05-10T00:14:06;13.50;99.90
31991;DHT22;18508;49.386;8.370;2023-05-10T00:16:34;13.50;99.90
31991;DHT22;18508;49.386;8.370;2023-05-10T00:19:02;13.50;99.90
31991;DHT22;18508;49.386;8.370;2023-05-10T00:21:30;13.40;99.90
31991;DHT22;18508;49.386;8.370;2023-05-10T00:24:00;13.40;99.90
31991;DHT22;18508;49.386;8.370;2023-05-10T00:26:28;13.40;99.90
31991;DHT22;18508;49.386;8.370;2023-05-10T00:28:56;13.40;99.90
31991;DHT22;18508;49.386;8.370;2023-05-10T00:31:29;13.40;99.90
31991;DHT22;18508;49.386;8.370;2023-05-10T00:33:57;13.30;99.90
31991;DHT22;18508;49.386;8.370;2023-05-10T00:36:25;13.30;99.90
31991;DHT22;18508;49.386;8.370;2023-05-10T00:38:54;13.30;99.90
31991;DHT22;18508;49.386;8.370;2023-05-10T00:41:22;13.30;99.90
31991;DHT22;18508;49.386;8.370;2023-05-10T00:43:51;13.30;99.90
31991;DHT22;18508;49.386;8.370;2023-05-10T00:46:19;13.30;99.90
31991;DHT22;18508;49.386;8.370;2023-05-10T00:48:49;13.20;99.90
31991;DHT22;18508;49.386;8.370;2023-05-10T00:51:18;13.20;99.90
31991;DHT22;18508;49.386;8.370;2023-05-10T00:53:46;13.10;99.90
31991;DHT22;18508;49.386;8.370;2023-05-10T00:56:15;13.00;99.90
31991;DHT22;18508;49.386;8.370;2023-05-10T00:58:43;13.00;99.90
31991;DHT22;18508;49.386;8.370;2023-05-10T01:01:11;13.00;99.90
31991;DHT22;18508;49.386;8.370;2023-05-10T01:03:40;13.00;99.90
31991;DHT22;18508;49.386;8.370;2023-05-10T01:06:10;13.00;99.90
31991;DHT22;18508;49.386;8.370;2023-05-10T01:08:39;13.00;99.90
31991;DHT22;18508;49.386;8.370;2023-05-10T01:11:07;13.00;99.90
31991;DHT22;18508;49.386;8.370;2023-05-10T01:13:38;13.00;99.90
31991;DHT22;18508;49.386;8.370;2023-05-10T01:16:07;13.10;99.90
31991;DHT22;18508;49.386;8.370;2023-05-10T01:18:38;13.10;99.90
31991;DHT22;18508;49.386;8.370;2023-05-10T01:21:17;13.10;99.90
31991;DHT22;18508;49.386;8.370;2023-05-10T01:24:09;13.00;99.90
31991;DHT22;18508;49.386;8.370;2023-05-10T01:27:07;12.90;99.90
31991;DHT22;18508;49.386;8.370;2023-05-10T01:32:56;12.90;99.90
31991;DHT22;18508;49.386;8.370;2023-05-10T01:35:36;12.90;99.90
31991;DHT22;18508;49.386;8.370;2023-05-10T01:38:16;12.90;99.90
31991;DHT22;18508;49.386;8.370;2023-05-10T01:40:51;12.90;99.90
31991;DHT22;18508;49.386;8.370;2023-05-10T01:43:28;12.90;99.90
31991;DHT22;18508;49.386;8.370;2023-05-10T01:46:02;12.90;99.90
31991;DHT22;18508;49.386;8.370;2023-05-10T01:48:41;12.90;99.90
31991;DHT22;18508;49.386;8.370;2023-05-10T01:51:15;12.90;99.90
31991;DHT22;18508;49.386;8.370;2023-05-10T01:53:46;12.90;99.90
31991;DHT22;18508;49.386;8.370;2023-05-10T01:56:18;12.90;99.90
31991;DHT22;18508;49.386;8.370;2023-05-10T01:58:48;12.90;99.90
31991;DHT22;18508;49.386;8.370;2023-05-10T02:01:19;12.90;99.90
31991;DHT22;18508;49.386;8.370;2023-05-10T02:03:50;12.90;99.90
31991;DHT22;18508;49.386;8.370;2023-05-10T02:06:20;12.90;99.90
31991;DHT22;18508;49.386;8.370;2023-05-10T02:08:50;12.90;99.90
31991;DHT22;18508;49.386;8.370;2023-05-10T02:11:20;13.00;99.90
31991;DHT22;18508;49.386;8.370;2023-05-10T02:13:50;13.00;99.90
31991;DHT22;18508;49.386;8.370;2023-05-10T02:16:23;12.90;99.90
31991;DHT22;18508;49.386;8.370;2023-05-10T02:18:53;13.00;99.90
31991;DHT22;18508;49.386;8.370;2023-05-10T02:21:22;13.00;99.90
31991;DHT22;18508;49.386;8.370;2023-05-10T02:23:52;13.00;99.90
31991;DHT22;18508;49.386;8.370;2023-05-10T02:26:22;12.90;99.90
31991;DHT22;18508;49.386;8.370;2023-05-10T02:28:52;12.90;99.90
31991;DHT22;18508;49.386;8.370;2023-05-10T02:31:22;12.80;99.90
31991;DHT22;18508;49.386;8.370;2023-05-10T02:33:52;12.80;99.90
31991;DHT22;18508;49.386;8.370;2023-05-10T02:36:21;12.80;99.90
31991;DHT22;18508;49.386;8.370;2023-05-10T02:38:51;12.80;99.90
31991;DHT22;18508;49.386;8.370;2023-05-10T02:41:20;12.80;99.90
31991;DHT22;18508;49.386;8.370;2023-05-10T02:43:51;12.80;99.90
31991;DHT22;18508;49.386;8.370;2023-05-10T02:46:20;12.70;99.90
31991;DHT22;18508;49.386;8.370;2023-05-10T02:48:48;12.70;99.90
31991;DHT22;18508;49.386;8.370;2023-05-10T02:51:18;12.70;99.90
31991;DHT22;18508;49.386;8.370;2023-05-10T02:53:49;12.60;99.90
31991;DHT22;18508;49.386;8.370;2023-05-10T02:56:25;12.60;99.90
31991;DHT22;18508;49.386;8.370;2023-05-10T02:58:53;12.60;99.90
31991;DHT22;18508;49.386;8.370;2023-05-10T03:01:21;12.60;99.90
31991;DHT22;18508;49.386;8.370;2023-05-10T03:03:49;12.60;99.90
31991;DHT22;18508;49.386;8.370;2023-05-10T03:06:19;12.60;99.90
31991;DHT22;18508;49.386;8.370;2023-05-10T03:08:47;12.60;99.90
31991;DHT22;18508;49.386;8.370;2023-05-10T03:11:32;12.60;99.90
31991;DHT22;18508;49.386;8.370;2023-05-10T03:14:11;12.60;99.90
31991;DHT22;18508;49.386;8.370;2023-05-10T03:16:44;12.60;99.90
31991;DHT22;18508;49.386;8.370;2023-05-10T03:19:19;12.60;99.90
31991;DHT22;18508;49.386;8.370;2023-05-10T03:21:52;12.50;99.90
31991;DHT22;18508;49.386;8.370;2023-05-10T03:24:23;12.60;99.90
31991;DHT22;18508;49.386;8.370;2023-05-10T03:26:54;12.60;99.90
31991;DHT22;18508;49.386;8.370;2023-05-10T03:29:25;12.50;99.90
31991;DHT22;18508;49.386;8.370;2023-05-10T03:31:54;12.50;99.90
31991;DHT22;18508;49.386;8.370;2023-05-10T03:34:23;12.50;99.90
31991;DHT22;18508;49.386;8.370;2023-05-10T03:36:53;12.50;99.90
31991;DHT22;18508;49.386;8.370;2023-05-10T03:39:22;12.50;99.90
31991;DHT22;18508;49.386;8.370;2023-05-10T03:41:51;12.40;99.90
31991;DHT22;18508;49.386;8.370;2023-05-10T03:44:19;12.40;99.90
31991;DHT22;18508;49.386;8.370;2023-05-10T03:46:47;12.40;99.90
31991;DHT22;18508;49.386;8.370;2023-05-10T03:49:16;12.40;99.90
31991;DHT22;18508;49.386;8.370;2023-05-10T03:51:44;12.30;99.90
31991;DHT22;18508;49.386;8.370;2023-05-10T03:54:14;12.30;99.90
31991;DHT22;18508;49.386;8.370;2023-05-10T03:56:42;12.20;99.90
31991;DHT22;18508;49.386;8.370;2023-05-10T03:59:10;12.20;99.90
31991;DHT22;18508;49.386;8.370;2023-05-10T04:01:38;12.20;99.90
31991;DHT22;18508;49.386;8.370;2023-05-10T04:04:07;12.20;99.90
31991;DHT22;18508;49.386;8.370;2023-05-10T04:06:35;12.20;99.90
31991;DHT22;18508;49.386;8.370;2023-05-10T04:09:03;12.10;99.90
31991;DHT22;18508;49.386;8.370;2023-05-10T04:11:33;12.10;99.90
31991;DHT22;18508;49.386;8.370;2023-05-10T04:14:01;12.10;99.90
31991;DHT22;18508;49.386;8.370;2023-05-10T04:16:31;12.00;99.90
31991;DHT22;18508;49.386;8.370;2023-05-10T04:18:59;12.10;99.90
31991;DHT22;18508;49.386;8.370;2023-05-10T04:21:27;12.10;99.90
31991;DHT22;18508;49.386;8.370;2023-05-10T04:23:55;12.00;99.90
31991;DHT22;18508;49.386;8.370;2023-05-10T04:26:23;12.00;99.90
31991;DHT22;18508;49.386;8.370;2023-05-10T04:28:53;12.00;99.90
31991;DHT22;18508;49.386;8.370;2023-05-10T04:31:22;11.90;99.90
31991;DHT22;18508;49.386;8.370;2023-05-10T04:33:50;12.00;99.90
31991;DHT22;18508;49.386;8.370;2023-05-10T04:36:18;12.00;99.90
31991;DHT22;18508;49.386;8.370;2023-05-10T04:38:46;12.00;99.90
31991;DHT22;18508;49.386;8.370;2023-05-10T04:41:14;12.00;99.90
31991;DHT22;18508;49.386;8.370;2023-05-10T04:43:43;12.00;99.90
31991;DHT22;18508;49.386;8.370;2023-05-10T04:46:12;12.00;99.90
31991;DHT22;18508;49.386;8.370;2023-05-10T04:48:40;12.00;99.90
31991;DHT22;18508;49.386;8.370;2023-05-10T04:51:08;12.00;99.90
31991;DHT22;18508;49.386;8.370;2023-05-10T04:53:36;12.10;99.90
31991;DHT22;18508;49.386;8.370;2023-05-10T04:56:05;12.10;99.90
31991;DHT22;18508;49.386;8.370;2023-05-10T04:58:34;12.10;99.90
31991;DHT22;18508;49.386;8.370;2023-05-10T05:01:05;12.10;99.90
31991;DHT22;18508;49.386;8.370;2023-05-10T05:03:36;12.10;99.90
31991;DHT22;18508;49.386;8.370;2023-05-10T05:06:05;12.10;99.90
31991;DHT22;18508;49.386;8.370;2023-05-10T05:08:33;12.20;99.90
31991;DHT22;18508;49.386;8.370;2023-05-10T05:11:03;12.20;99.90
31991;DHT22;18508;49.386;8.370;2023-05-10T05:13:31;12.20;99.90
31991;DHT22;18508;49.386;8.370;2023-05-10T05:16:00;12.30;99.90
31991;DHT22;18508;49.386;8.370;2023-05-10T05:18:29;12.30;99.90
31991;DHT22;18508;49.386;8.370;2023-05-10T05:21:00;12.40;99.90
31991;DHT22;18508;49.386;8.370;2023-05-10T05:23:28;12.40;99.90
31991;DHT22;18508;49.386;8.370;2023-05-10T05:25:57;12.50;99.90
31991;DHT22;18508;49.386;8.370;2023-05-10T05:28:25;12.60;99.90
31991;DHT22;18508;49.386;8.370;2023-05-10T05:30:56;12.70;99.90
31991;DHT22;18508;49.386;8.370;2023-05-10T05:33:24;12.70;99.90
31991;DHT22;18508;49.386;8.370;2023-05-10T05:35:52;12.80;99.90
31991;DHT22;18508;49.386;8.370;2023-05-10T05:38:21;12.90;99.90
31991;DHT22;18508;49.386;8.370;2023-05-10T05:40:50;13.00;99.90
31991;DHT22;18508;49.386;8.370;2023-05-10T05:43:18;13.00;99.90
31991;DHT22;18508;49.386;8.370;2023-05-10T05:45:46;13.10;99.90
31991;DHT22;18508;49.386;8.370;2023-05-10T05:48:14;13.20;99.90
31991;DHT22;18508;49.386;8.370;2023-05-10T05:50:42;13.30;99.90
31991;DHT22;18508;49.386;8.370;2023-05-10T05:53:10;13.40;99.90
31991;DHT22;18508;49.386;8.370;2023-05-10T05:55:40;13.40;99.90
31991;DHT22;18508;49.386;8.370;2023-05-10T05:58:08;13.50;99.90
31991;DHT22;18508;49.386;8.370;2023-05-10T06:00:36;13.70;99.90
31991;DHT22;18508;49.386;8.370;2023-05-10T06:03:04;13.80;99.90
31991;DHT22;18508;49.386;8.370;2023-05-10T06:05:34;13.90;99.90
31991;DHT22;18508;49.386;8.370;2023-05-10T06:08:02;14.00;99.90
31991;DHT22;18508;49.386;8.370;2023-05-10T06:10:30;13.90;99.90
31991;DHT22;18508;49.386;8.370;2023-05-10T06:13:00;13.90;99.90
31991;DHT22;18508;49.386;8.370;2023-05-10T06:15:28;13.90;99.90
31991;DHT22;18508;49.386;8.370;2023-05-10T06:17:56;13.90;99.90
31991;DHT22;18508;49.386;8.370;2023-05-10T06:20:25;13.80;99.90
31991;DHT22;18508;49.386;8.370;2023-05-10T06:22:53;13.80;99.90
31991;DHT22;18508;49.386;8.370;2023-05-10T06:25:22;13.90;99.90
31991;DHT22;18508;49.386;8.370;2023-05-10T06:27:50;13.90;99.90
31991;DHT22;18508;49.386;8.370;2023-05-10T06:30:25;13.90;99.90
31991;DHT22;18508;49.386;8.370;2023-05-10T06:32:56;14.00;99.90
31991;DHT22;18508;49.386;8.370;2023-05-10T06:35:24;14.10;99.90
31991;DHT22;18508;49.386;8.370;2023-05-10T06:37:53;14.10;99.90
31991;DHT22;18508;49.386;8.370;2023-05-10T06:40:22;14.10;99.90
31991;DHT22;18508;49.386;8.370;2023-05-10T06:42:50;14.10;99.90
31991;DHT22;18508;49.386;8.370;2023-05-10T06:45:18;14.00;99.90
31991;DHT22;18508;49.386;8.370;2023-05-10T06:47:48;14.20;99.90
31991;DHT22;18508;49.386;8.370;2023-05-10T06:50:16;14.10;99.90
31991;DHT22;18508;49.386;8.370;2023-05-10T06:52:44;14.10;99.90
31991;DHT22;18508;49.386;8.370;2023-05-10T06:55:12;14.20;99.90
31991;DHT22;18508;49.386;8.370;2023-05-10T06:57:41;14.30;99.90
31991;DHT22;18508;49.386;8.370;2023-05-10T07:00:09;14.30;99.90
31991;DHT22;18508;49.386;8.370;2023-05-10T07:02:37;14.20;99.90
31991;DHT22;18508;49.386;8.370;2023-05-10T07:05:08;14.20;99.90
31991;DHT22;18508;49.386;8.370;2023-05-10T07:07:36;14.20;99.90
31991;DHT22;18508;49.386;8.370;2023-05-10T07:10:05;14.20;99.90
31991;DHT22;18508;49.386;8.370;2023-05-10T07:12:33;14.30;99.90
31991;DHT22;18508;49.386;8.370;2023-05-10T07:15:02;14.40;99.90
31991;DHT22;18508;49.386;8.370;2023-05-10T07:17:30;14.60;99.90
31991;DHT22;18508;49.386;8.370;2023-05-10T07:20:00;14.80;99.90
31991;DHT22;18508;49.386;8.370;2023-05-10T07:22:29;15.00;99.90
31991;DHT22;18508;49.386;8.370;2023-05-10T07:24:57;15.10;99.90
31991;DHT22;18508;49.386;8.370;2023-05-10T07:27:26;15.00;99.90
31991;DHT22;18508;49.386;8.370;2023-05-10T07:29:54;14.90;99.90
31991;DHT22;18508;49.386;8.370;2023-05-10T07:32:23;15.00;99.90
31991;DHT22;18508;49.386;8.370;2023-05-10T07:34:51;15.30;99.90
31991;DHT22;18508;49.386;8.370;2023-05-10T07:37:21;15.30;99.90
31991;DHT22;18508;49.386;8.370;2023-05-10T07:39:51;15.20;99.90
31991;DHT22;18508;49.386;8.370;2023-05-10T07:42:19;15.20;99.90
31991;DHT22;18508;49.386;8.370;2023-05-10T07:44:47;15.10;99.90
31991;DHT22;18508;49.386;8.370;2023-05-10T07:47:15;15.10;99.90
31991;DHT22;18508;49.386;8.370;2023-05-10T07:49:43;15.20;99.90
31991;DHT22;18508;49.386;8.370;2023-05-10T07:52:11;15.40;99.90
31991;DHT22;18508;49.386;8.370;2023-05-10T07:54:40;15.50;99.90
31991;DHT22;18508;49.386;8.370;2023-05-10T07:57:09;15.50;99.90
31991;DHT22;18508;49.386;8.370;2023-05-10T07:59:38;15.40;99.90
31991;DHT22;18508;49.386;8.370;2023-05-10T08:02:06;15.60;99.90
31991;DHT22;18508;49.386;8.370;2023-05-10T08:04:34;15.80;99.90
31991;DHT22;18508;49.386;8.370;2023-05-10T08:07:02;15.90;99.90
31991;DHT22;18508;49.386;8.370;2023-05-10T08:09:31;15.80;99.90
31991;DHT22;18508;49.386;8.370;2023-05-10T08:11:59;15.70;99.90
31991;DHT22;18508;49.386;8.370;2023-05-10T08:14:29;15.80;99.90
31991;DHT22;18508;49.386;8.370;2023-05-10T08:16:57;16.00;99.90
31991;DHT22;18508;49.386;8.370;2023-05-10T08:19:25;16.00;99.90
31991;DHT22;18508;49.386;8.370;2023-05-10T08:21:53;16.00;99.90
31991;DHT22;18508;49.386;8.370;2023-05-10T08:24:22;15.90;99.90
31991;DHT22;18508;49.386;8.370;2023-05-10T08:26:52;16.00;99.90
31991;DHT22;18508;49.386;8.370;2023-05-10T08:29:20;15.90;99.90
31991;DHT22;18508;49.386;8.370;2023-05-10T08:31:49;15.70;99.90
31991;DHT22;18508;49.386;8.370;2023-05-10T08:34:18;15.50;99.90
31991;DHT22;18508;49.386;8.370;2023-05-10T08:36:46;15.60;99.90
31991;DHT22;18508;49.386;8.370;2023-05-10T08:39:14;15.70;99.90
31991;DHT22;18508;49.386;8.370;2023-05-10T08:41:59;15.70;99.90
31991;DHT22;18508;49.386;8.370;2023-05-10T08:44:32;16.00;99.90
31991;DHT22;18508;49.386;8.370;2023-05-10T08:47:04;16.10;99.90
31991;DHT22;18508;49.386;8.370;2023-05-10T08:49:33;16.30;99.90
31991;DHT22;18508;49.386;8.370;2023-05-10T08:52:03;16.50;99.90
31991;DHT22;18508;49.386;8.370;2023-05-10T08:54:33;16.50;99.90
31991;DHT22;18508;49.386;8.370;2023-05-10T08:57:02;16.60;99.90
31991;DHT22;18508;49.386;8.370;2023-05-10T08:59:30;16.60;99.90
31991;DHT22;18508;49.386;8.370;2023-05-10T09:02:02;16.90;99.90
31991;DHT22;18508;49.386;8.370;2023-05-10T09:04:32;17.10;99.90
31991;DHT22;18508;49.386;8.370;2023-05-10T09:07:01;17.10;99.90
31991;DHT22;18508;49.386;8.370;2023-05-10T09:09:29;17.10;99.90
31991;DHT22;18508;49.386;8.370;2023-05-10T09:11:59;17.00;99.90
31991;DHT22;18508;49.386;8.370;2023-05-10T09:14:27;16.80;99.90
31991;DHT22;18508;49.386;8.370;2023-05-10T09:16:55;16.60;99.90
31991;DHT22;18508;49.386;8.370;2023-05-10T09:19:27;16.50;99.90
31991;DHT22;18508;49.386;8.370;2023-05-10T09:21:55;16.50;99.90
31991;DHT22;18508;49.386;8.370;2023-05-10T09:24:25;16.60;99.90
31991;DHT22;18508;49.386;8.370;2023-05-10T09:26:56;16.70;99.90
31991;DHT22;18508;49.386;8.370;2023-05-10T09:29:25;16.80;99.90
31991;DHT22;18508;49.386;8.370;2023-05-10T09:31:53;16.90;99.90
31991;DHT22;18508;49.386;8.370;2023-05-10T09:34:31;17.10;99.90
31991;DHT22;18508;49.386;8.370;2023-05-10T09:37:02;17.20;99.90
31991;DHT22;18508;49.386;8.370;2023-05-10T09:39:32;17.40;99.90
31991;DHT22;18508;49.386;8.370;2023-05-10T09:42:03;17.70;99.90
31991;DHT22;18508;49.386;8.370;2023-05-10T09:44:32;17.80;99.90
31991;DHT22;18508;49.386;8.370;2023-05-10T09:47:00;17.70;99.90
31991;DHT22;18508;49.386;8.370;2023-05-10T09:49:28;17.60;99.90
31991;DHT22;18508;49.386;8.370;2023-05-10T09:52:02;17.50;99.90
31991;DHT22;18508;49.386;8.370;2023-05-10T09:54:31;17.10;99.90
31991;DHT22;18508;49.386;8.370;2023-05-10T09:57:00;16.80;99.90
31991;DHT22;18508;49.386;8.370;2023-05-10T09:59:33;16.50;99.90
31991;DHT22;18508;49.386;8.370;2023-05-10T10:02:02;16.30;99.90
31991;DHT22;18508;49.386;8.370;2023-05-10T10:04:31;16.20;99.90
31991;DHT22;18508;49.386;8.370;2023-05-10T10:07:02;16.10;99.90
31991;DHT22;18508;49.386;8.370;2023-05-10T10:09:31;16.00;99.90
31991;DHT22;18508;49.386;8.370;2023-05-10T10:12:00;15.90;99.90
31991;DHT22;18508;49.386;8.370;2023-05-10T10:14:30;15.90;99.90
31991;DHT22;18508;49.386;8.370;2023-05-10T10:17:00;16.00;99.90
31991;DHT22;18508;49.386;8.370;2023-05-10T10:19:33;16.30;99.90
31991;DHT22;18508;49.386;8.370;2023-05-10T10:22:03;16.60;99.90
31991;DHT22;18508;49.386;8.370;2023-05-10T10:24:31;17.00;70.70
31991;DHT22;18508;49.386;8.370;2023-05-10T10:27:04;17.40;78.10
31991;DHT22;18508;49.386;8.370;2023-05-10T10:29:39;17.70;1.00
31991;DHT22;18508;49.386;8.370;2023-05-10T10:32:12;18.10;1.00
31991;DHT22;18508;49.386;8.370;2023-05-10T10:34:47;18.30;1.00
31991;DHT22;18508;49.386;8.370;2023-05-10T10:37:17;18.50;1.00
31991;DHT22;18508;49.386;8.370;2023-05-10T10:39:48;18.60;1.00
31991;DHT22;18508;49.386;8.370;2023-05-10T10:42:46;18.60;1.00
31991;DHT22;18508;49.386;8.370;2023-05-10T10:45:16;18.70;1.00
31991;DHT22;18508;49.386;8.370;2023-05-10T10:47:47;18.80;1.00
31991;DHT22;18508;49.386;8.370;2023-05-10T10:50:16;18.90;1.00
31991;DHT22;18508;49.386;8.370;2023-05-10T10:52:47;18.60;1.00
31991;DHT22;18508;49.386;8.370;2023-05-10T10:55:17;18.40;1.00
31991;DHT22;18508;49.386;8.370;2023-05-10T10:57:50;18.40;1.00
31991;DHT22;18508;49.386;8.370;2023-05-10T11:00:26;18.50;1.00
31991;DHT22;18508;49.386;8.370;2023-05-10T11:02:57;18.50;1.00
31991;DHT22;18508;49.386;8.370;2023-05-10T11:05:41;18.70;1.00
31991;DHT22;18508;49.386;8.370;2023-05-10T11:08:17;18.70;99.90
31991;DHT22;18508;49.386;8.370;2023-05-10T11:13:40;19.00;1.00
31991;DHT22;18508;49.386;8.370;2023-05-10T11:16:13;19.30;99.90
31991;DHT22;18508;49.386;8.370;2023-05-10T11:19:00;19.30;99.90
31991;DHT22;18508;49.386;8.370;2023-05-10T11:21:30;19.70;1.00
31991;DHT22;18508;49.386;8.370;2023-05-10T11:24:01;19.70;99.90
31991;DHT22;18508;49.386;8.370;2023-05-10T11:26:34;19.80;99.90
31991;DHT22;18508;49.386;8.370;2023-05-10T11:29:03;19.90;99.90
31991;DHT22;18508;49.386;8.370;2023-05-10T11:31:31;19.90;99.90
31991;DHT22;18508;49.386;8.370;2023-05-10T11:34:00;20.00;99.90
31991;DHT22;18508;49.386;8.370;2023-05-10T11:36:31;19.90;99.90
31991;DHT22;18508;49.386;8.370;2023-05-10T11:39:02;19.60;99.90
31991;DHT22;18508;49.386;8.370;2023-05-10T11:41:30;19.40;99.90
31991;DHT22;18508;49.386;8.370;2023-05-10T11:43:59;19.30;99.90
31991;DHT22;18508;49.386;8.370;2023-05-10T11:46:28;19.30;99.90
31991;DHT22;18508;49.386;8.370;2023-05-10T11:48:58;19.30;99.90
31991;DHT22;18508;49.386;8.370;2023-05-10T11:51:28;19.30;99.90
31991;DHT22;18508;49.386;8.370;2023-05-10T11:53:57;19.30;99.90
31991;DHT22;18508;49.386;8.370;2023-05-10T11:56:27;19.30;99.90
31991;DHT22;18508;49.386;8.370;2023-05-10T11:58:57;19.50;99.90
31991;DHT22;18508;49.386;8.370;2023-05-10T12:01:27;19.30;99.90
31991;DHT22;18508;49.386;8.370;2023-05-10T12:03:56;19.30;99.90
31991;DHT22;18508;49.386;8.370;2023-05-10T12:06:28;19.20;99.90
31991;DHT22;18508;49.386;8.370;2023-05-10T12:08:58;19.30;99.90
31991;DHT22;18508;49.386;8.370;2023-05-10T12:11:29;19.70;99.90
31991;DHT22;18508;49.386;8.370;2023-05-10T12:13:57;19.70;99.90
31991;DHT22;18508;49.386;8.370;2023-05-10T12:16:28;19.60;99.90
31991;DHT22;18508;49.386;8.370;2023-05-10T12:18:59;19.60;99.90
31991;DHT22;18508;49.386;8.370;2023-05-10T12:21:28;19.70;99.90
31991;DHT22;18508;49.386;8.370;2023-05-10T12:24:01;19.70;99.90
31991;DHT22;18508;49.386;8.370;2023-05-10T12:26:30;19.80;99.90
31991;DHT22;18508;49.386;8.370;2023-05-10T12:29:12;19.90;99.90
31991;DHT22;18508;49.386;8.370;2023-05-10T12:31:51;19.90;99.90
31991;DHT22;18508;49.386;8.370;2023-05-10T12:34:24;20.10;99.90
31991;DHT22;18508;49.386;8.370;2023-05-10T12:36:52;20.30;99.90
31991;DHT22;18508;49.386;8.370;2023-05-10T12:39:21;20.60;99.90
31991;DHT22;18508;49.386;8.370;2023-05-10T12:41:50;20.60;99.90
31991;DHT22;18508;49.386;8.370;2023-05-10T12:44:19;20.70;99.90
31991;DHT22;18508;49.386;8.370;2023-05-10T12:46:47;20.50;99.90
31991;DHT22;18508;49.386;8.370;2023-05-10T12:49:15;20.70;99.90
31991;DHT22;18508;49.386;8.370;2023-05-10T12:51:43;20.80;99.90
31991;DHT22;18508;49.386;8.370;2023-05-10T12:54:11;20.90;99.90
31991;DHT22;18508;49.386;8.370;2023-05-10T12:56:39;21.10;99.90
31991;DHT22;18508;49.386;8.370;2023-05-10T12:59:10;21.10;1.00
31991;DHT22;18508;49.386;8.370;2023-05-10T13:01:39;21.20;1.00
31991;DHT22;18508;49.386;8.370;2023-05-10T13:04:09;21.20;1.00
31991;DHT22;18508;49.386;8.370;2023-05-10T13:06:38;21.10;12.30
31991;DHT22;18508;49.386;8.370;2023-05-10T13:09:06;21.00;1.00
31991;DHT22;18508;49.386;8.370;2023-05-10T13:11:34;20.60;1.00
31991;DHT22;18508;49.386;8.370;2023-05-10T13:14:02;20.60;1.00
31991;DHT22;18508;49.386;8.370;2023-05-10T13:16:32;20.70;1.00
31991;DHT22;18508;49.386;8.370;2023-05-10T13:19:00;21.00;1.00
31991;DHT22;18508;49.386;8.370;2023-05-10T13:21:29;21.00;1.00
31991;DHT22;18508;49.386;8.370;2023-05-10T13:23:57;20.90;16.90
31991;DHT22;18508;49.386;8.370;2023-05-10T13:26:27;21.10;1.00
31991;DHT22;18508;49.386;8.370;2023-05-10T13:28:55;21.10;99.90
31991;DHT22;18508;49.386;8.370;2023-05-10T13:31:23;21.20;56.10
31991;DHT22;18508;49.386;8.370;2023-05-10T13:33:53;21.00;99.90
31991;DHT22;18508;49.386;8.370;2023-05-10T13:36:22;20.90;99.90
31991;DHT22;18508;49.386;8.370;2023-05-10T13:38:50;21.00;99.90
31991;DHT22;18508;49.386;8.370;2023-05-10T13:41:18;20.90;99.90
31991;DHT22;18508;49.386;8.370;2023-05-10T13:43:46;20.60;99.90
31991;DHT22;18508;49.386;8.370;2023-05-10T13:46:16;20.90;99.90
31991;DHT22;18508;49.386;8.370;2023-05-10T13:48:44;21.00;99.90
31991;DHT22;18508;49.386;8.370;2023-05-10T13:51:13;20.90;99.90
31991;DHT22;18508;49.386;8.370;2023-05-10T13:53:41;21.20;99.90
31991;DHT22;18508;49.386;8.370;2023-05-10T13:56:09;21.10;99.90
31991;DHT22;18508;49.386;8.370;2023-05-10T13:58:37;21.20;99.90
31991;DHT22;18508;49.386;8.370;2023-05-10T14:01:05;21.10;99.90
31991;DHT22;18508;49.386;8.370;2023-05-10T14:03:34;21.00;99.90
31991;DHT22;18508;49.386;8.370;2023-05-10T14:06:02;20.90;99.90
31991;DHT22;18508;49.386;8.370;2023-05-10T14:08:31;20.70;99.90
31991;DHT22;18508;49.386;8.370;2023-05-10T14:10:59;20.70;99.90
31991;DHT22;18508;49.386;8.370;2023-05-10T14:13:28;20.40;99.90
31991;DHT22;18508;49.386;8.370;2023-05-10T14:15:56;20.50;99.90
31991;DHT22;18508;49.386;8.370;2023-05-10T14:18:27;20.60;99.90
31991;DHT22;18508;49.386;8.370;2023-05-10T14:20:55;21.10;99.90
31991;DHT22;18508;49.386;8.370;2023-05-10T14:23:24;21.40;99.90
31991;DHT22;18508;49.386;8.370;2023-05-10T14:25:55;21.60;99.90
31991;DHT22;18508;49.386;8.370;2023-05-10T14:28:23;21.70;99.90
31991;DHT22;18508;49.386;8.370;2023-05-10T14:30:51;21.60;99.90
31991;DHT22;18508;49.386;8.370;2023-05-10T14:33:19;21.60;99.90
31991;DHT22;18508;49.386;8.370;2023-05-10T14:35:48;21.50;99.90
31991;DHT22;18508;49.386;8.370;2023-05-10T14:38:16;21.40;99.90
31991;DHT22;18508;49.386;8.370;2023-05-10T14:40:44;21.00;99.90
31991;DHT22;18508;49.386;8.370;2023-05-10T14:43:13;20.90;99.90
31991;DHT22;18508;49.386;8.370;2023-05-10T14:45:41;21.50;99.90
31991;DHT22;18508;49.386;8.370;2023-05-10T14:48:10;21.50;99.90
31991;DHT22;18508;49.386;8.370;2023-05-10T14:50:42;21.70;99.90
31991;DHT22;18508;49.386;8.370;2023-05-10T14:53:10;22.00;99.90
31991;DHT22;18508;49.386;8.370;2023-05-10T14:55:39;22.30;99.90
31991;DHT22;18508;49.386;8.370;2023-05-10T14:58:07;22.90;99.90
31991;DHT22;18508;49.386;8.370;2023-05-10T15:00:37;23.50;99.90
31991;DHT22;18508;49.386;8.370;2023-05-10T15:03:05;24.10;99.90
31991;DHT22;18508;49.386;8.370;2023-05-10T15:05:34;24.50;99.90
31991;DHT22;18508;49.386;8.370;2023-05-10T15:08:04;24.00;99.90
31991;DHT22;18508;49.386;8.370;2023-05-10T15:10:32;24.40;99.90
31991;DHT22;18508;49.386;8.370;2023-05-10T15:13:01;24.40;99.90
31991;DHT22;18508;49.386;8.370;2023-05-10T15:15:29;24.80;99.90
31991;DHT22;18508;49.386;8.370;2023-05-10T15:17:59;24.60;99.90
31991;DHT22;18508;49.386;8.370;2023-05-10T15:20:27;24.40;99.90
31991;DHT22;18508;49.386;8.370;2023-05-10T15:22:55;24.80;99.90
31991;DHT22;18508;49.386;8.370;2023-05-10T15:25:23;24.80;99.90
31991;DHT22;18508;49.386;8.370;2023-05-10T15:27:51;25.00;99.90
31991;DHT22;18508;49.386;8.370;2023-05-10T15:30:22;24.20;99.90
31991;DHT22;18508;49.386;8.370;2023-05-10T15:32:52;24.20;99.90
31991;DHT22;18508;49.386;8.370;2023-05-10T15:35:23;24.00;99.90
31991;DHT22;18508;49.386;8.370;2023-05-10T15:37:52;23.70;99.90
31991;DHT22;18508;49.386;8.370;2023-05-10T15:40:21;23.50;99.90
31991;DHT22;18508;49.386;8.370;2023-05-10T15:42:50;23.00;99.90
31991;DHT22;18508;49.386;8.370;2023-05-10T15:45:18;22.60;99.90
31991;DHT22;18508;49.386;8.370;2023-05-10T15:47:46;22.40;99.90
31991;DHT22;18508;49.386;8.370;2023-05-10T15:50:15;22.70;99.90
31991;DHT22;18508;49.386;8.370;2023-05-10T15:52:45;22.60;99.90
31991;DHT22;18508;49.386;8.370;2023-05-10T15:55:13;22.40;99.90